LTBR/YEI METAR and TAF weather

Enter ICAO airport designator
Station Type Date Time Source
LTBR METAR 2020/01/23 18:20 UTC NOAA

LTBR 231820Z 32004KT 9999 SCT040 02/M04 Q1030 NOSIG


Station Type Date Time Source
LTBR Decoded METAR 2020/01/23 18:20 UTC NOAA

Bursa / Yenisehir, Mil-Civ, Turkey (LTBR) 40-15-19N 029-33-45E
Jan 23, 2020 - 01:20 PM EST / 2020.01.23 1820 UTC
Wind: from the NW (320 degrees) at 5 MPH (4 KT):0
Visibility: greater than 7 mile(s):0
Sky conditions: partly cloudy
Temperature: 35 F (2 C)
Windchill: 30 F (-1 C):1
Dew Point: 24 F (-4 C)
Relative Humidity: 64%
Pressure (altimeter): 30.42 in. Hg (1030 hPa)
ob: LTBR 231820Z 32004KT 9999 SCT040 02/M04 Q1030 NOSIG
cycle: 18

Station Type Date Time Source
LTBR TAF 2020/01/23 18:03 UTC NOAA

TAF LTBR 231640Z 2318/2418 33012KT 9999 SCT035
BECMG 2318/2320 VRB02KT PROB30
TEMPO 2321/2324 -SHSN BKN030
BECMG 2415/2418 CAVOK

Example: see airport list